sensor_id;sensor_type;location;lat;lon;timestamp;P1;durP1;ratioP1;P2;durP2;ratioP2
52438;SDS011;38359;53.150;6.504;2023-07-20T00:07:40;9.20;;;4.38;;
52438;SDS011;38359;53.150;6.504;2023-07-20T00:18:06;5.88;;;4.50;;
52438;SDS011;38359;53.150;6.504;2023-07-20T00:28:32;7.57;;;4.15;;
52438;SDS011;38359;53.150;6.504;2023-07-20T00:38:58;4.80;;;3.65;;
52438;SDS011;38359;53.150;6.504;2023-07-20T00:49:23;5.45;;;3.53;;
52438;SDS011;38359;53.150;6.504;2023-07-20T00:59:50;7.57;;;4.05;;
52438;SDS011;38359;53.150;6.504;2023-07-20T01:21:12;7.50;;;4.28;;
52438;SDS011;38359;53.150;6.504;2023-07-20T01:31:45;8.60;;;4.88;;
52438;SDS011;38359;53.150;6.504;2023-07-20T01:42:14;9.60;;;4.50;;
52438;SDS011;38359;53.150;6.504;2023-07-20T01:52:40;8.32;;;4.53;;
52438;SDS011;38359;53.150;6.504;2023-07-20T02:03:06;7.20;;;4.95;;
52438;SDS011;38359;53.150;6.504;2023-07-20T02:13:32;9.15;;;5.15;;
52438;SDS011;38359;53.150;6.504;2023-07-20T02:23:58;9.25;;;5.45;;
52438;SDS011;38359;53.150;6.504;2023-07-20T02:34:24;5.90;;;5.15;;
52438;SDS011;38359;53.150;6.504;2023-07-20T02:44:50;8.82;;;4.47;;
52438;SDS011;38359;53.150;6.504;2023-07-20T02:55:16;5.60;;;4.20;;
52438;SDS011;38359;53.150;6.504;2023-07-20T03:05:42;9.30;;;4.55;;
52438;SDS011;38359;53.150;6.504;2023-07-20T03:16:14;8.35;;;4.43;;
52438;SDS011;38359;53.150;6.504;2023-07-20T03:26:43;9.38;;;4.85;;
52438;SDS011;38359;53.150;6.504;2023-07-20T03:37:09;6.15;;;4.82;;
52438;SDS011;38359;53.150;6.504;2023-07-20T03:47:35;7.22;;;4.55;;
52438;SDS011;38359;53.150;6.504;2023-07-20T03:58:01;7.05;;;5.03;;
52438;SDS011;38359;53.150;6.504;2023-07-20T04:08:26;7.03;;;3.85;;
52438;SDS011;38359;53.150;6.504;2023-07-20T04:18:54;5.38;;;4.25;;
52438;SDS011;38359;53.150;6.504;2023-07-20T04:29:21;8.10;;;4.57;;
52438;SDS011;38359;53.150;6.504;2023-07-20T04:39:47;8.63;;;4.40;;
52438;SDS011;38359;53.150;6.504;2023-07-20T04:50:13;4.80;;;4.28;;
52438;SDS011;38359;53.150;6.504;2023-07-20T05:00:38;5.60;;;3.25;;
52438;SDS011;38359;53.150;6.504;2023-07-20T05:11:04;5.57;;;3.38;;
52438;SDS011;38359;53.150;6.504;2023-07-20T05:21:30;10.23;;;3.13;;
52438;SDS011;38359;53.150;6.504;2023-07-20T05:31:56;6.97;;;3.33;;
52438;SDS011;38359;53.150;6.504;2023-07-20T05:42:22;9.10;;;3.05;;
52438;SDS011;38359;53.150;6.504;2023-07-20T05:52:48;8.07;;;2.47;;
52438;SDS011;38359;53.150;6.504;2023-07-20T06:03:13;7.90;;;2.42;;
52438;SDS011;38359;53.150;6.504;2023-07-20T06:13:41;6.32;;;2.08;;
52438;SDS011;38359;53.150;6.504;2023-07-20T06:24:08;6.93;;;2.10;;
52438;SDS011;38359;53.150;6.504;2023-07-20T06:34:34;5.90;;;1.70;;
52438;SDS011;38359;53.150;6.504;2023-07-20T06:45:03;3.67;;;1.50;;
52438;SDS011;38359;53.150;6.504;2023-07-20T06:55:29;3.17;;;1.60;;
52438;SDS011;38359;53.150;6.504;2023-07-20T07:05:55;6.20;;;1.58;;
52438;SDS011;38359;53.150;6.504;2023-07-20T07:16:21;10.75;;;1.48;;
52438;SDS011;38359;53.150;6.504;2023-07-20T07:26:47;3.78;;;1.50;;
52438;SDS011;38359;53.150;6.504;2023-07-20T07:37:13;11.10;;;2.20;;
52438;SDS011;38359;53.150;6.504;2023-07-20T07:47:39;9.38;;;2.33;;
52438;SDS011;38359;53.150;6.504;2023-07-20T07:58:05;10.57;;;2.50;;
52438;SDS011;38359;53.150;6.504;2023-07-20T08:08:31;7.43;;;2.25;;
52438;SDS011;38359;53.150;6.504;2023-07-20T08:18:57;5.80;;;1.98;;
52438;SDS011;38359;53.150;6.504;2023-07-20T08:29:23;7.85;;;2.20;;
52438;SDS011;38359;53.150;6.504;2023-07-20T08:39:49;7.47;;;2.05;;
52438;SDS011;38359;53.150;6.504;2023-07-20T08:50:15;9.57;;;1.98;;
52438;SDS011;38359;53.150;6.504;2023-07-20T09:00:41;3.97;;;1.40;;
52438;SDS011;38359;53.150;6.504;2023-07-20T09:11:10;5.88;;;1.20;;
52438;SDS011;38359;53.150;6.504;2023-07-20T09:21:38;4.32;;;1.20;;
52438;SDS011;38359;53.150;6.504;2023-07-20T09:32:04;2.50;;;1.23;;
52438;SDS011;38359;53.150;6.504;2023-07-20T09:42:30;6.10;;;1.05;;
52438;SDS011;38359;53.150;6.504;2023-07-20T09:52:56;6.57;;;1.45;;
52438;SDS011;38359;53.150;6.504;2023-07-20T10:03:26;5.30;;;1.20;;
52438;SDS011;38359;53.150;6.504;2023-07-20T10:13:55;6.88;;;1.20;;
52438;SDS011;38359;53.150;6.504;2023-07-20T10:24:25;4.65;;;1.05;;
52438;SDS011;38359;53.150;6.504;2023-07-20T10:34:53;2.03;;;0.88;;
52438;SDS011;38359;53.150;6.504;2023-07-20T10:45:21;4.65;;;1.02;;
52438;SDS011;38359;53.150;6.504;2023-07-20T10:56:23;6.95;;;1.58;;
52438;SDS011;38359;53.150;6.504;2023-07-20T11:06:55;6.40;;;1.00;;
52438;SDS011;38359;53.150;6.504;2023-07-20T11:17:20;4.57;;;1.38;;
52438;SDS011;38359;53.150;6.504;2023-07-20T11:27:58;3.80;;;1.00;;
52438;SDS011;38359;53.150;6.504;2023-07-20T11:38:24;2.03;;;1.10;;
52438;SDS011;38359;53.150;6.504;2023-07-20T11:48:55;4.32;;;1.20;;
52438;SDS011;38359;53.150;6.504;2023-07-20T11:59:23;3.00;;;1.45;;
52438;SDS011;38359;53.150;6.504;2023-07-20T12:10:08;3.05;;;1.23;;
52438;SDS011;38359;53.150;6.504;2023-07-20T12:20:37;5.53;;;1.15;;
52438;SDS011;38359;53.150;6.504;2023-07-20T12:31:04;4.50;;;1.00;;
52438;SDS011;38359;53.150;6.504;2023-07-20T12:41:31;6.03;;;1.23;;
52438;SDS011;38359;53.150;6.504;2023-07-20T12:51:57;6.88;;;1.48;;
52438;SDS011;38359;53.150;6.504;2023-07-20T13:02:22;2.40;;;1.23;;
52438;SDS011;38359;53.150;6.504;2023-07-20T13:12:48;3.50;;;1.08;;
52438;SDS011;38359;53.150;6.504;2023-07-20T13:23:14;4.90;;;1.48;;
52438;SDS011;38359;53.150;6.504;2023-07-20T13:33:40;6.13;;;1.00;;
52438;SDS011;38359;53.150;6.504;2023-07-20T13:44:05;4.50;;;1.20;;
52438;SDS011;38359;53.150;6.504;2023-07-20T13:54:31;3.47;;;1.08;;
52438;SDS011;38359;53.150;6.504;2023-07-20T14:04:57;5.32;;;1.17;;
52438;SDS011;38359;53.150;6.504;2023-07-20T14:15:23;4.43;;;0.95;;
52438;SDS011;38359;53.150;6.504;2023-07-20T14:25:49;1.88;;;0.80;;
52438;SDS011;38359;53.150;6.504;2023-07-20T14:36:15;2.50;;;0.93;;
52438;SDS011;38359;53.150;6.504;2023-07-20T14:46:41;4.30;;;1.00;;
52438;SDS011;38359;53.150;6.504;2023-07-20T14:57:07;4.18;;;1.10;;
52438;SDS011;38359;53.150;6.504;2023-07-20T15:07:38;3.55;;;1.17;;
52438;SDS011;38359;53.150;6.504;2023-07-20T15:18:04;9.00;;;1.53;;
52438;SDS011;38359;53.150;6.504;2023-07-20T15:28:30;3.15;;;1.10;;
52438;SDS011;38359;53.150;6.504;2023-07-20T15:38:56;4.22;;;1.15;;
52438;SDS011;38359;53.150;6.504;2023-07-20T15:49:22;2.08;;;1.20;;
52438;SDS011;38359;53.150;6.504;2023-07-20T15:59:49;8.05;;;3.92;;
52438;SDS011;38359;53.150;6.504;2023-07-20T16:10:15;5.05;;;1.38;;
52438;SDS011;38359;53.150;6.504;2023-07-20T16:20:41;12.48;;;4.32;;
52438;SDS011;38359;53.150;6.504;2023-07-20T16:31:10;6.17;;;1.20;;
52438;SDS011;38359;53.150;6.504;2023-07-20T16:41:37;3.33;;;1.20;;
52438;SDS011;38359;53.150;6.504;2023-07-20T16:52:03;5.20;;;1.27;;
52438;SDS011;38359;53.150;6.504;2023-07-20T17:02:29;7.00;;;1.38;;
52438;SDS011;38359;53.150;6.504;2023-07-20T17:12:56;4.88;;;1.30;;
52438;SDS011;38359;53.150;6.504;2023-07-20T17:23:22;2.87;;;1.20;;
52438;SDS011;38359;53.150;6.504;2023-07-20T17:33:48;9.18;;;1.75;;
52438;SDS011;38359;53.150;6.504;2023-07-20T17:44:14;4.40;;;1.50;;
52438;SDS011;38359;53.150;6.504;2023-07-20T17:54:39;7.32;;;1.65;;
52438;SDS011;38359;53.150;6.504;2023-07-20T18:05:05;4.30;;;1.30;;
52438;SDS011;38359;53.150;6.504;2023-07-20T18:15:31;5.38;;;1.20;;
52438;SDS011;38359;53.150;6.504;2023-07-20T18:25:57;6.00;;;1.67;;
52438;SDS011;38359;53.150;6.504;2023-07-20T18:36:23;5.60;;;1.70;;
52438;SDS011;38359;53.150;6.504;2023-07-20T18:46:49;4.22;;;1.33;;
52438;SDS011;38359;53.150;6.504;2023-07-20T18:57:15;8.30;;;1.60;;
52438;SDS011;38359;53.150;6.504;2023-07-20T19:07:40;7.40;;;1.80;;
52438;SDS011;38359;53.150;6.504;2023-07-20T19:18:06;6.95;;;1.77;;
52438;SDS011;38359;53.150;6.504;2023-07-20T19:28:32;5.65;;;2.05;;
52438;SDS011;38359;53.150;6.504;2023-07-20T19:39:00;5.72;;;2.13;;
52438;SDS011;38359;53.150;6.504;2023-07-20T19:49:27;5.68;;;2.50;;
52438;SDS011;38359;53.150;6.504;2023-07-20T19:59:54;5.95;;;2.33;;
52438;SDS011;38359;53.150;6.504;2023-07-20T20:10:20;5.20;;;2.30;;
52438;SDS011;38359;53.150;6.504;2023-07-20T20:20:45;8.30;;;2.92;;
52438;SDS011;38359;53.150;6.504;2023-07-20T20:31:11;5.38;;;2.42;;
52438;SDS011;38359;53.150;6.504;2023-07-20T20:41:37;11.35;;;3.30;;
52438;SDS011;38359;53.150;6.504;2023-07-20T20:52:09;9.68;;;3.00;;
52438;SDS011;38359;53.150;6.504;2023-07-20T21:02:34;7.35;;;3.10;;
52438;SDS011;38359;53.150;6.504;2023-07-20T21:13:00;4.60;;;2.45;;
52438;SDS011;38359;53.150;6.504;2023-07-20T21:23:29;5.18;;;2.63;;
52438;SDS011;38359;53.150;6.504;2023-07-20T21:33:54;7.70;;;3.45;;
52438;SDS011;38359;53.150;6.504;2023-07-20T21:44:20;10.45;;;3.10;;
52438;SDS011;38359;53.150;6.504;2023-07-20T21:54:46;6.05;;;2.58;;
52438;SDS011;38359;53.150;6.504;2023-07-20T22:05:12;6.00;;;2.92;;
52438;SDS011;38359;53.150;6.504;2023-07-20T22:15:39;5.13;;;2.67;;
52438;SDS011;38359;53.150;6.504;2023-07-20T22:26:05;10.18;;;3.63;;
52438;SDS011;38359;53.150;6.504;2023-07-20T22:36:31;9.38;;;3.10;;
52438;SDS011;38359;53.150;6.504;2023-07-20T22:46:57;7.15;;;3.03;;
52438;SDS011;38359;53.150;6.504;2023-07-20T22:57:23;10.13;;;3.20;;
52438;SDS011;38359;53.150;6.504;2023-07-20T23:07:49;6.28;;;2.83;;
52438;SDS011;38359;53.150;6.504;2023-07-20T23:18:15;9.70;;;3.20;;
52438;SDS011;38359;53.150;6.504;2023-07-20T23:28:41;8.77;;;3.55;;
52438;SDS011;38359;53.150;6.504;2023-07-20T23:39:07;8.82;;;3.92;;
52438;SDS011;38359;53.150;6.504;2023-07-20T23:49:33;8.82;;;3.03;;
52438;SDS011;38359;53.150;6.504;2023-07-20T23:59:59;7.53;;;3.42;;
